sensor_id;sensor_type;location;lat;lon;timestamp;P1;durP1;ratioP1;P2;durP2;ratioP2
75152;SDS011;63734;45.218;36.708;2023-04-19T00:01:54;12.68;;;3.42;;
75152;SDS011;63734;45.218;36.708;2023-04-19T00:04:20;13.63;;;3.83;;
75152;SDS011;63734;45.218;36.708;2023-04-19T00:06:46;4.30;;;2.55;;
75152;SDS011;63734;45.218;36.708;2023-04-19T00:09:12;16.20;;;3.67;;
75152;SDS011;63734;45.218;36.708;2023-04-19T00:11:38;8.48;;;3.33;;
75152;SDS011;63734;45.218;36.708;2023-04-19T00:14:04;7.18;;;3.50;;
75152;SDS011;63734;45.218;36.708;2023-04-19T00:16:30;7.05;;;2.83;;
75152;SDS011;63734;45.218;36.708;2023-04-19T00:18:55;7.78;;;3.20;;
75152;SDS011;63734;45.218;36.708;2023-04-19T00:21:21;5.68;;;2.67;;
75152;SDS011;63734;45.218;36.708;2023-04-19T00:23:47;7.10;;;2.80;;
75152;SDS011;63734;45.218;36.708;2023-04-19T00:26:13;8.38;;;2.63;;
75152;SDS011;63734;45.218;36.708;2023-04-19T00:28:45;10.38;;;3.40;;
75152;SDS011;63734;45.218;36.708;2023-04-19T00:31:11;6.25;;;2.70;;
75152;SDS011;63734;45.218;36.708;2023-04-19T00:33:37;9.77;;;3.10;;
75152;SDS011;63734;45.218;36.708;2023-04-19T00:36:03;10.25;;;3.15;;
75152;SDS011;63734;45.218;36.708;2023-04-19T00:38:29;6.20;;;3.78;;
75152;SDS011;63734;45.218;36.708;2023-04-19T00:40:55;9.43;;;2.58;;
75152;SDS011;63734;45.218;36.708;2023-04-19T00:43:21;10.38;;;4.32;;
75152;SDS011;63734;45.218;36.708;2023-04-19T00:45:47;9.10;;;3.72;;
75152;SDS011;63734;45.218;36.708;2023-04-19T00:48:13;8.57;;;3.65;;
75152;SDS011;63734;45.218;36.708;2023-04-19T00:50:41;9.60;;;4.38;;
75152;SDS011;63734;45.218;36.708;2023-04-19T00:53:09;7.03;;;2.92;;
75152;SDS011;63734;45.218;36.708;2023-04-19T00:55:35;6.63;;;2.75;;
75152;SDS011;63734;45.218;36.708;2023-04-19T00:58:04;11.98;;;3.58;;
75152;SDS011;63734;45.218;36.708;2023-04-19T01:00:30;16.73;;;3.40;;
75152;SDS011;63734;45.218;36.708;2023-04-19T01:02:57;8.98;;;3.75;;
75152;SDS011;63734;45.218;36.708;2023-04-19T01:05:22;14.45;;;2.78;;
75152;SDS011;63734;45.218;36.708;2023-04-19T01:07:48;10.48;;;4.18;;
75152;SDS011;63734;45.218;36.708;2023-04-19T01:10:15;7.25;;;3.40;;
75152;SDS011;63734;45.218;36.708;2023-04-19T01:12:42;11.30;;;3.50;;
75152;SDS011;63734;45.218;36.708;2023-04-19T01:15:09;12.73;;;3.13;;
75152;SDS011;63734;45.218;36.708;2023-04-19T01:17:35;11.20;;;3.78;;
75152;SDS011;63734;45.218;36.708;2023-04-19T01:20:03;11.35;;;3.60;;
75152;SDS011;63734;45.218;36.708;2023-04-19T01:22:33;8.63;;;2.60;;
75152;SDS011;63734;45.218;36.708;2023-04-19T01:25:03;7.20;;;3.92;;
75152;SDS011;63734;45.218;36.708;2023-04-19T01:27:29;7.03;;;2.65;;
75152;SDS011;63734;45.218;36.708;2023-04-19T01:29:56;10.55;;;3.67;;
75152;SDS011;63734;45.218;36.708;2023-04-19T01:32:25;8.05;;;3.75;;
75152;SDS011;63734;45.218;36.708;2023-04-19T01:34:51;10.43;;;4.00;;
75152;SDS011;63734;45.218;36.708;2023-04-19T01:37:17;6.57;;;3.40;;
75152;SDS011;63734;45.218;36.708;2023-04-19T01:39:43;6.75;;;3.60;;
75152;SDS011;63734;45.218;36.708;2023-04-19T01:42:09;8.82;;;4.15;;
75152;SDS011;63734;45.218;36.708;2023-04-19T01:44:35;4.60;;;2.60;;
75152;SDS011;63734;45.218;36.708;2023-04-19T01:47:01;3.45;;;1.50;;
75152;SDS011;63734;45.218;36.708;2023-04-19T01:49:27;2.33;;;1.35;;
75152;SDS011;63734;45.218;36.708;2023-04-19T01:51:53;6.13;;;2.25;;
75152;SDS011;63734;45.218;36.708;2023-04-19T01:54:19;3.25;;;1.77;;
75152;SDS011;63734;45.218;36.708;2023-04-19T01:56:48;4.82;;;1.60;;
75152;SDS011;63734;45.218;36.708;2023-04-19T01:59:14;3.95;;;1.83;;
75152;SDS011;63734;45.218;36.708;2023-04-19T02:01:39;2.38;;;1.58;;
75152;SDS011;63734;45.218;36.708;2023-04-19T02:04:05;4.70;;;1.70;;
75152;SDS011;63734;45.218;36.708;2023-04-19T02:06:32;3.40;;;1.55;;
75152;SDS011;63734;45.218;36.708;2023-04-19T02:08:58;2.40;;;1.20;;
75152;SDS011;63734;45.218;36.708;2023-04-19T02:11:24;1.85;;;1.35;;
75152;SDS011;63734;45.218;36.708;2023-04-19T02:13:50;5.15;;;1.40;;
75152;SDS011;63734;45.218;36.708;2023-04-19T02:16:15;4.30;;;1.50;;
75152;SDS011;63734;45.218;36.708;2023-04-19T02:18:41;2.00;;;1.10;;
75152;SDS011;63734;45.218;36.708;2023-04-19T02:21:08;2.58;;;1.33;;
75152;SDS011;63734;45.218;36.708;2023-04-19T02:23:35;3.63;;;1.60;;
75152;SDS011;63734;45.218;36.708;2023-04-19T02:26:01;2.75;;;1.75;;
75152;SDS011;63734;45.218;36.708;2023-04-19T02:28:30;2.03;;;1.70;;
75152;SDS011;63734;45.218;36.708;2023-04-19T02:30:57;2.80;;;1.85;;
75152;SDS011;63734;45.218;36.708;2023-04-19T02:33:24;7.38;;;1.50;;
75152;SDS011;63734;45.218;36.708;2023-04-19T02:35:54;3.90;;;1.80;;
75152;SDS011;63734;45.218;36.708;2023-04-19T02:38:19;2.78;;;1.60;;
75152;SDS011;63734;45.218;36.708;2023-04-19T02:40:45;3.35;;;1.85;;
75152;SDS011;63734;45.218;36.708;2023-04-19T02:43:11;3.75;;;1.35;;
75152;SDS011;63734;45.218;36.708;2023-04-19T02:45:37;4.82;;;1.70;;
75152;SDS011;63734;45.218;36.708;2023-04-19T02:48:03;9.35;;;2.72;;
75152;SDS011;63734;45.218;36.708;2023-04-19T02:50:30;3.72;;;2.30;;
75152;SDS011;63734;45.218;36.708;2023-04-19T02:52:57;6.07;;;3.10;;
75152;SDS011;63734;45.218;36.708;2023-04-19T02:55:24;3.55;;;2.50;;
75152;SDS011;63734;45.218;36.708;2023-04-19T02:58:00;11.00;;;2.92;;
75152;SDS011;63734;45.218;36.708;2023-04-19T03:00:26;5.18;;;3.08;;
75152;SDS011;63734;45.218;36.708;2023-04-19T03:03:02;6.30;;;2.95;;
75152;SDS011;63734;45.218;36.708;2023-04-19T03:05:32;12.77;;;3.50;;
75152;SDS011;63734;45.218;36.708;2023-04-19T03:07:58;5.93;;;2.95;;
75152;SDS011;63734;45.218;36.708;2023-04-19T03:10:25;7.22;;;3.05;;
75152;SDS011;63734;45.218;36.708;2023-04-19T03:12:51;7.75;;;4.15;;
75152;SDS011;63734;45.218;36.708;2023-04-19T03:15:17;6.97;;;3.80;;
75152;SDS011;63734;45.218;36.708;2023-04-19T03:17:44;10.88;;;3.72;;
75152;SDS011;63734;45.218;36.708;2023-04-19T03:20:11;6.53;;;3.13;;
75152;SDS011;63734;45.218;36.708;2023-04-19T03:22:37;8.82;;;3.38;;
75152;SDS011;63734;45.218;36.708;2023-04-19T03:25:03;8.48;;;3.88;;
75152;SDS011;63734;45.218;36.708;2023-04-19T03:27:30;11.48;;;3.85;;
75152;SDS011;63734;45.218;36.708;2023-04-19T03:30:03;10.73;;;4.22;;
75152;SDS011;63734;45.218;36.708;2023-04-19T03:32:30;6.53;;;2.30;;
75152;SDS011;63734;45.218;36.708;2023-04-19T03:34:56;8.10;;;3.78;;
75152;SDS011;63734;45.218;36.708;2023-04-19T03:37:22;6.88;;;3.20;;
75152;SDS011;63734;45.218;36.708;2023-04-19T03:39:48;5.40;;;2.80;;
75152;SDS011;63734;45.218;36.708;2023-04-19T03:42:20;4.75;;;1.83;;
75152;SDS011;63734;45.218;36.708;2023-04-19T03:45:03;11.30;;;3.30;;
75152;SDS011;63734;45.218;36.708;2023-04-19T03:47:33;3.88;;;2.08;;
75152;SDS011;63734;45.218;36.708;2023-04-19T03:49:58;3.28;;;1.95;;
75152;SDS011;63734;45.218;36.708;2023-04-19T03:52:26;7.68;;;3.13;;
75152;SDS011;63734;45.218;36.708;2023-04-19T03:54:52;3.55;;;2.25;;
75152;SDS011;63734;45.218;36.708;2023-04-19T03:57:33;4.57;;;1.95;;
75152;SDS011;63734;45.218;36.708;2023-04-19T04:00:04;6.05;;;2.28;;
75152;SDS011;63734;45.218;36.708;2023-04-19T04:02:39;7.28;;;2.25;;
75152;SDS011;63734;45.218;36.708;2023-04-19T04:05:14;3.67;;;2.03;;
75152;SDS011;63734;45.218;36.708;2023-04-19T04:07:41;7.43;;;2.83;;
75152;SDS011;63734;45.218;36.708;2023-04-19T04:10:11;3.47;;;2.60;;
75152;SDS011;63734;45.218;36.708;2023-04-19T04:12:41;5.28;;;2.90;;
75152;SDS011;63734;45.218;36.708;2023-04-19T04:15:10;7.68;;;3.30;;
75152;SDS011;63734;45.218;36.708;2023-04-19T04:17:42;10.63;;;4.15;;
75152;SDS011;63734;45.218;36.708;2023-04-19T04:20:09;10.68;;;3.95;;
75152;SDS011;63734;45.218;36.708;2023-04-19T04:22:44;7.40;;;4.13;;
75152;SDS011;63734;45.218;36.708;2023-04-19T04:25:13;13.23;;;4.70;;
75152;SDS011;63734;45.218;36.708;2023-04-19T04:27:43;11.40;;;5.13;;
75152;SDS011;63734;45.218;36.708;2023-04-19T04:30:14;10.23;;;4.55;;
75152;SDS011;63734;45.218;36.708;2023-04-19T04:32:40;11.80;;;4.43;;
75152;SDS011;63734;45.218;36.708;2023-04-19T04:35:06;10.50;;;4.97;;
75152;SDS011;63734;45.218;36.708;2023-04-19T04:37:42;10.63;;;3.97;;
75152;SDS011;63734;45.218;36.708;2023-04-19T04:40:08;9.27;;;5.13;;
75152;SDS011;63734;45.218;36.708;2023-04-19T04:42:35;9.57;;;5.20;;
75152;SDS011;63734;45.218;36.708;2023-04-19T04:45:02;13.15;;;5.07;;
75152;SDS011;63734;45.218;36.708;2023-04-19T04:47:30;15.02;;;5.43;;
75152;SDS011;63734;45.218;36.708;2023-04-19T04:49:59;14.23;;;5.18;;
75152;SDS011;63734;45.218;36.708;2023-04-19T04:52:26;14.07;;;4.55;;
75152;SDS011;63734;45.218;36.708;2023-04-19T04:55:02;13.20;;;5.05;;
75152;SDS011;63734;45.218;36.708;2023-04-19T04:57:31;12.27;;;4.20;;
75152;SDS011;63734;45.218;36.708;2023-04-19T04:59:58;10.52;;;4.35;;
75152;SDS011;63734;45.218;36.708;2023-04-19T05:02:30;14.50;;;5.07;;
75152;SDS011;63734;45.218;36.708;2023-04-19T05:04:56;11.05;;;4.90;;
75152;SDS011;63734;45.218;36.708;2023-04-19T05:07:22;8.18;;;4.18;;
75152;SDS011;63734;45.218;36.708;2023-04-19T05:09:48;9.93;;;3.83;;
75152;SDS011;63734;45.218;36.708;2023-04-19T05:12:19;6.32;;;2.30;;
75152;SDS011;63734;45.218;36.708;2023-04-19T05:14:45;7.57;;;3.50;;
75152;SDS011;63734;45.218;36.708;2023-04-19T05:17:11;7.05;;;3.17;;
75152;SDS011;63734;45.218;36.708;2023-04-19T05:19:37;7.28;;;3.45;;
75152;SDS011;63734;45.218;36.708;2023-04-19T05:22:05;9.50;;;3.20;;
75152;SDS011;63734;45.218;36.708;2023-04-19T05:24:31;6.65;;;3.88;;
75152;SDS011;63734;45.218;36.708;2023-04-19T05:26:58;12.15;;;3.70;;
75152;SDS011;63734;45.218;36.708;2023-04-19T05:29:26;8.07;;;3.72;;
75152;SDS011;63734;45.218;36.708;2023-04-19T05:31:53;10.98;;;4.32;;
75152;SDS011;63734;45.218;36.708;2023-04-19T05:34:27;7.90;;;4.28;;
75152;SDS011;63734;45.218;36.708;2023-04-19T05:36:55;7.35;;;3.38;;
75152;SDS011;63734;45.218;36.708;2023-04-19T05:39:21;15.70;;;4.35;;
75152;SDS011;63734;45.218;36.708;2023-04-19T05:41:47;11.70;;;4.47;;
75152;SDS011;63734;45.218;36.708;2023-04-19T05:44:13;10.55;;;3.80;;
75152;SDS011;63734;45.218;36.708;2023-04-19T05:46:39;11.48;;;4.60;;
75152;SDS011;63734;45.218;36.708;2023-04-19T05:49:08;10.57;;;4.30;;
75152;SDS011;63734;45.218;36.708;2023-04-19T05:51:52;7.70;;;4.50;;
75152;SDS011;63734;45.218;36.708;2023-04-19T05:54:30;11.98;;;4.13;;
75152;SDS011;63734;45.218;36.708;2023-04-19T05:57:03;14.38;;;4.65;;
75152;SDS011;63734;45.218;36.708;2023-04-19T05:59:29;9.45;;;4.68;;
75152;SDS011;63734;45.218;36.708;2023-04-19T06:01:55;12.70;;;4.75;;
75152;SDS011;63734;45.218;36.708;2023-04-19T06:04:21;12.07;;;4.13;;
75152;SDS011;63734;45.218;36.708;2023-04-19T06:06:47;13.45;;;5.57;;
75152;SDS011;63734;45.218;36.708;2023-04-19T06:09:13;12.18;;;4.72;;
75152;SDS011;63734;45.218;36.708;2023-04-19T06:11:40;11.52;;;5.75;;
75152;SDS011;63734;45.218;36.708;2023-04-19T06:14:07;7.97;;;4.15;;
75152;SDS011;63734;45.218;36.708;2023-04-19T06:16:33;9.27;;;5.35;;
75152;SDS011;63734;45.218;36.708;2023-04-19T06:18:59;14.63;;;5.05;;
75152;SDS011;63734;45.218;36.708;2023-04-19T06:21:25;11.73;;;5.32;;
75152;SDS011;63734;45.218;36.708;2023-04-19T06:23:54;11.73;;;5.30;;
75152;SDS011;63734;45.218;36.708;2023-04-19T06:26:20;14.93;;;6.25;;
75152;SDS011;63734;45.218;36.708;2023-04-19T06:28:47;14.25;;;5.78;;
75152;SDS011;63734;45.218;36.708;2023-04-19T06:31:13;10.13;;;5.57;;
75152;SDS011;63734;45.218;36.708;2023-04-19T06:33:39;20.75;;;6.43;;
75152;SDS011;63734;45.218;36.708;2023-04-19T06:36:05;11.30;;;5.10;;
75152;SDS011;63734;45.218;36.708;2023-04-19T06:38:31;17.80;;;6.15;;
75152;SDS011;63734;45.218;36.708;2023-04-19T06:40:57;12.55;;;5.30;;
75152;SDS011;63734;45.218;36.708;2023-04-19T06:43:23;15.82;;;5.75;;
75152;SDS011;63734;45.218;36.708;2023-04-19T06:45:56;12.55;;;5.18;;
75152;SDS011;63734;45.218;36.708;2023-04-19T06:48:22;14.77;;;5.40;;
75152;SDS011;63734;45.218;36.708;2023-04-19T06:50:48;11.30;;;4.85;;
75152;SDS011;63734;45.218;36.708;2023-04-19T06:53:14;5.90;;;3.42;;
75152;SDS011;63734;45.218;36.708;2023-04-19T06:55:40;8.32;;;3.50;;
75152;SDS011;63734;45.218;36.708;2023-04-19T06:58:06;8.40;;;3.42;;
75152;SDS011;63734;45.218;36.708;2023-04-19T07:00:35;7.45;;;3.75;;
75152;SDS011;63734;45.218;36.708;2023-04-19T07:03:01;8.30;;;3.53;;
75152;SDS011;63734;45.218;36.708;2023-04-19T07:05:28;10.93;;;3.55;;
75152;SDS011;63734;45.218;36.708;2023-04-19T07:07:55;5.63;;;2.88;;
75152;SDS011;63734;45.218;36.708;2023-04-19T07:10:21;6.45;;;3.13;;
75152;SDS011;63734;45.218;36.708;2023-04-19T07:12:46;10.32;;;4.07;;
75152;SDS011;63734;45.218;36.708;2023-04-19T07:15:12;8.98;;;4.40;;
75152;SDS011;63734;45.218;36.708;2023-04-19T07:17:38;12.77;;;3.90;;
75152;SDS011;63734;45.218;36.708;2023-04-19T07:20:05;5.70;;;2.88;;
75152;SDS011;63734;45.218;36.708;2023-04-19T07:22:31;9.93;;;4.32;;
75152;SDS011;63734;45.218;36.708;2023-04-19T07:24:57;9.25;;;4.00;;
75152;SDS011;63734;45.218;36.708;2023-04-19T07:27:24;7.85;;;3.60;;
75152;SDS011;63734;45.218;36.708;2023-04-19T07:29:50;5.60;;;2.97;;
75152;SDS011;63734;45.218;36.708;2023-04-19T07:32:17;7.70;;;3.63;;
75152;SDS011;63734;45.218;36.708;2023-04-19T07:34:43;8.60;;;4.70;;
75152;SDS011;63734;45.218;36.708;2023-04-19T07:37:10;6.28;;;3.63;;
75152;SDS011;63734;45.218;36.708;2023-04-19T07:39:37;7.97;;;4.07;;
75152;SDS011;63734;45.218;36.708;2023-04-19T07:42:03;8.35;;;3.92;;
75152;SDS011;63734;45.218;36.708;2023-04-19T07:44:29;11.13;;;4.35;;
75152;SDS011;63734;45.218;36.708;2023-04-19T07:46:55;8.88;;;3.35;;
75152;SDS011;63734;45.218;36.708;2023-04-19T07:49:21;6.50;;;3.58;;
75152;SDS011;63734;45.218;36.708;2023-04-19T07:51:47;9.43;;;3.10;;
75152;SDS011;63734;45.218;36.708;2023-04-19T07:54:13;9.05;;;3.60;;
75152;SDS011;63734;45.218;36.708;2023-04-19T07:56:44;7.97;;;3.50;;
75152;SDS011;63734;45.218;36.708;2023-04-19T07:59:10;9.60;;;3.53;;
75152;SDS011;63734;45.218;36.708;2023-04-19T08:01:36;20.95;;;3.25;;
75152;SDS011;63734;45.218;36.708;2023-04-19T08:04:02;6.38;;;3.20;;
75152;SDS011;63734;45.218;36.708;2023-04-19T08:06:28;6.18;;;2.80;;
75152;SDS011;63734;45.218;36.708;2023-04-19T08:08:55;6.80;;;3.22;;
75152;SDS011;63734;45.218;36.708;2023-04-19T08:11:21;12.77;;;2.83;;
75152;SDS011;63734;45.218;36.708;2023-04-19T08:13:49;6.97;;;3.25;;
75152;SDS011;63734;45.218;36.708;2023-04-19T08:16:15;5.47;;;3.50;;
75152;SDS011;63734;45.218;36.708;2023-04-19T08:18:41;7.72;;;3.05;;
75152;SDS011;63734;45.218;36.708;2023-04-19T08:21:08;5.93;;;2.28;;
75152;SDS011;63734;45.218;36.708;2023-04-19T08:23:34;6.15;;;2.65;;
75152;SDS011;63734;45.218;36.708;2023-04-19T08:26:00;9.20;;;3.05;;
75152;SDS011;63734;45.218;36.708;2023-04-19T08:28:26;7.38;;;3.38;;
75152;SDS011;63734;45.218;36.708;2023-04-19T08:30:53;7.90;;;2.78;;
75152;SDS011;63734;45.218;36.708;2023-04-19T08:33:19;9.90;;;2.80;;
75152;SDS011;63734;45.218;36.708;2023-04-19T08:35:45;6.20;;;2.75;;
75152;SDS011;63734;45.218;36.708;2023-04-19T08:38:11;6.25;;;2.42;;
75152;SDS011;63734;45.218;36.708;2023-04-19T08:40:40;5.40;;;2.47;;
75152;SDS011;63734;45.218;36.708;2023-04-19T08:43:10;8.77;;;3.00;;
75152;SDS011;63734;45.218;36.708;2023-04-19T08:45:37;5.68;;;3.08;;
75152;SDS011;63734;45.218;36.708;2023-04-19T08:48:03;5.50;;;2.80;;
75152;SDS011;63734;45.218;36.708;2023-04-19T08:50:30;9.90;;;3.90;;
75152;SDS011;63734;45.218;36.708;2023-04-19T08:52:58;5.72;;;2.67;;
75152;SDS011;63734;45.218;36.708;2023-04-19T08:55:25;6.53;;;2.70;;
75152;SDS011;63734;45.218;36.708;2023-04-19T08:57:52;4.28;;;2.90;;
75152;SDS011;63734;45.218;36.708;2023-04-19T09:00:18;7.88;;;3.20;;
75152;SDS011;63734;45.218;36.708;2023-04-19T09:02:45;9.70;;;3.03;;
75152;SDS011;63734;45.218;36.708;2023-04-19T09:05:12;7.93;;;3.72;;
75152;SDS011;63734;45.218;36.708;2023-04-19T09:07:39;9.27;;;3.80;;
75152;SDS011;63734;45.218;36.708;2023-04-19T09:10:10;4.20;;;2.15;;
75152;SDS011;63734;45.218;36.708;2023-04-19T09:13:04;7.53;;;3.05;;
75152;SDS011;63734;45.218;36.708;2023-04-19T09:15:34;6.88;;;2.63;;
75152;SDS011;63734;45.218;36.708;2023-04-19T09:18:03;6.40;;;2.97;;
75152;SDS011;63734;45.218;36.708;2023-04-19T09:20:37;5.90;;;2.58;;
75152;SDS011;63734;45.218;36.708;2023-04-19T09:23:05;4.40;;;2.28;;
75152;SDS011;63734;45.218;36.708;2023-04-19T09:25:33;5.28;;;2.78;;
75152;SDS011;63734;45.218;36.708;2023-04-19T09:28:12;6.97;;;4.40;;
75152;SDS011;63734;45.218;36.708;2023-04-19T09:30:39;8.35;;;3.45;;
75152;SDS011;63734;45.218;36.708;2023-04-19T09:33:06;9.90;;;3.22;;
75152;SDS011;63734;45.218;36.708;2023-04-19T09:35:42;7.28;;;3.28;;
75152;SDS011;63734;45.218;36.708;2023-04-19T09:38:11;4.30;;;2.60;;
75152;SDS011;63734;45.218;36.708;2023-04-19T09:40:38;8.38;;;3.22;;
75152;SDS011;63734;45.218;36.708;2023-04-19T09:43:05;6.78;;;4.13;;
75152;SDS011;63734;45.218;36.708;2023-04-19T09:45:40;10.25;;;3.63;;
75152;SDS011;63734;45.218;36.708;2023-04-19T09:48:08;8.40;;;2.78;;
75152;SDS011;63734;45.218;36.708;2023-04-19T09:50:35;8.77;;;3.05;;
75152;SDS011;63734;45.218;36.708;2023-04-19T09:53:15;3.47;;;2.88;;
75152;SDS011;63734;45.218;36.708;2023-04-19T09:55:45;4.78;;;2.72;;
75152;SDS011;63734;45.218;36.708;2023-04-19T09:58:14;5.68;;;3.30;;
75152;SDS011;63734;45.218;36.708;2023-04-19T10:00:42;7.43;;;3.17;;
75152;SDS011;63734;45.218;36.708;2023-04-19T10:03:09;5.95;;;2.60;;
75152;SDS011;63734;45.218;36.708;2023-04-19T10:05:37;6.95;;;3.15;;
75152;SDS011;63734;45.218;36.708;2023-04-19T10:08:07;5.45;;;2.60;;
75152;SDS011;63734;45.218;36.708;2023-04-19T10:10:34;5.65;;;3.10;;
75152;SDS011;63734;45.218;36.708;2023-04-19T10:13:02;11.90;;;3.05;;
75152;SDS011;63734;45.218;36.708;2023-04-19T10:15:30;5.70;;;3.08;;
75152;SDS011;63734;45.218;36.708;2023-04-19T10:17:57;6.63;;;3.35;;
75152;SDS011;63734;45.218;36.708;2023-04-19T10:20:29;8.13;;;3.40;;
75152;SDS011;63734;45.218;36.708;2023-04-19T10:23:01;7.57;;;3.30;;
75152;SDS011;63734;45.218;36.708;2023-04-19T10:25:30;5.93;;;3.00;;
75152;SDS011;63734;45.218;36.708;2023-04-19T10:27:57;8.10;;;3.30;;
75152;SDS011;63734;45.218;36.708;2023-04-19T10:30:24;6.32;;;3.05;;
75152;SDS011;63734;45.218;36.708;2023-04-19T10:32:57;8.52;;;3.25;;
75152;SDS011;63734;45.218;36.708;2023-04-19T10:43:19;5.90;;;3.05;;
75152;SDS011;63734;45.218;36.708;2023-04-19T10:45:46;5.85;;;3.22;;
75152;SDS011;63734;45.218;36.708;2023-04-19T10:51:11;7.07;;;3.28;;
75152;SDS011;63734;45.218;36.708;2023-04-19T10:56:11;8.68;;;3.25;;
75152;SDS011;63734;45.218;36.708;2023-04-19T11:01:40;7.72;;;3.30;;
75152;SDS011;63734;45.218;36.708;2023-04-19T11:04:08;8.55;;;3.95;;
75152;SDS011;63734;45.218;36.708;2023-04-19T11:06:36;12.63;;;5.20;;
75152;SDS011;63734;45.218;36.708;2023-04-19T11:09:06;7.10;;;3.30;;
75152;SDS011;63734;45.218;36.708;2023-04-19T11:11:35;10.13;;;3.63;;
75152;SDS011;63734;45.218;36.708;2023-04-19T11:14:01;8.55;;;3.15;;
75152;SDS011;63734;45.218;36.708;2023-04-19T11:16:31;6.75;;;4.05;;
75152;SDS011;63734;45.218;36.708;2023-04-19T11:18:57;5.65;;;3.45;;
75152;SDS011;63734;45.218;36.708;2023-04-19T11:21:23;7.72;;;3.90;;
75152;SDS011;63734;45.218;36.708;2023-04-19T11:24:04;8.00;;;4.22;;
75152;SDS011;63734;45.218;36.708;2023-04-19T11:26:34;9.23;;;3.45;;
75152;SDS011;63734;45.218;36.708;2023-04-19T11:29:00;9.20;;;3.63;;
75152;SDS011;63734;45.218;36.708;2023-04-19T11:31:26;8.68;;;3.80;;
75152;SDS011;63734;45.218;36.708;2023-04-19T11:33:53;7.35;;;3.70;;
75152;SDS011;63734;45.218;36.708;2023-04-19T11:36:19;7.78;;;3.97;;
75152;SDS011;63734;45.218;36.708;2023-04-19T11:38:48;8.43;;;4.40;;
75152;SDS011;63734;45.218;36.708;2023-04-19T11:41:14;10.27;;;4.60;;
75152;SDS011;63734;45.218;36.708;2023-04-19T11:43:40;8.27;;;4.65;;
75152;SDS011;63734;45.218;36.708;2023-04-19T11:46:10;14.10;;;5.05;;
75152;SDS011;63734;45.218;36.708;2023-04-19T11:48:37;8.27;;;4.85;;
75152;SDS011;63734;45.218;36.708;2023-04-19T11:51:14;7.70;;;4.60;;
75152;SDS011;63734;45.218;36.708;2023-04-19T11:53:40;8.18;;;3.95;;
75152;SDS011;63734;45.218;36.708;2023-04-19T11:56:07;9.30;;;4.78;;
75152;SDS011;63734;45.218;36.708;2023-04-19T12:01:14;10.55;;;4.53;;
75152;SDS011;63734;45.218;36.708;2023-04-19T12:03:47;10.82;;;5.05;;
75152;SDS011;63734;45.218;36.708;2023-04-19T12:06:22;10.80;;;4.93;;
75152;SDS011;63734;45.218;36.708;2023-04-19T12:08:50;12.90;;;5.07;;
75152;SDS011;63734;45.218;36.708;2023-04-19T12:11:17;9.27;;;4.95;;
75152;SDS011;63734;45.218;36.708;2023-04-19T12:14:06;12.40;;;5.05;;
75152;SDS011;63734;45.218;36.708;2023-04-19T12:16:40;9.35;;;4.53;;
75152;SDS011;63734;45.218;36.708;2023-04-19T12:19:16;13.00;;;4.55;;
75152;SDS011;63734;45.218;36.708;2023-04-19T12:21:45;10.00;;;4.93;;
75152;SDS011;63734;45.218;36.708;2023-04-19T12:24:13;13.10;;;5.18;;
75152;SDS011;63734;45.218;36.708;2023-04-19T12:26:55;10.27;;;5.35;;
75152;SDS011;63734;45.218;36.708;2023-04-19T12:29:22;11.77;;;4.90;;
75152;SDS011;63734;45.218;36.708;2023-04-19T12:31:48;13.38;;;5.32;;
75152;SDS011;63734;45.218;36.708;2023-04-19T12:34:15;12.98;;;4.82;;
75152;SDS011;63734;45.218;36.708;2023-04-19T12:36:41;13.82;;;5.07;;
75152;SDS011;63734;45.218;36.708;2023-04-19T12:39:07;13.85;;;5.90;;
75152;SDS011;63734;45.218;36.708;2023-04-19T12:41:33;15.43;;;5.55;;
75152;SDS011;63734;45.218;36.708;2023-04-19T12:44:00;10.85;;;4.93;;
75152;SDS011;63734;45.218;36.708;2023-04-19T12:46:26;15.52;;;5.55;;
75152;SDS011;63734;45.218;36.708;2023-04-19T12:48:52;10.32;;;5.22;;
75152;SDS011;63734;45.218;36.708;2023-04-19T12:51:18;14.40;;;6.43;;
75152;SDS011;63734;45.218;36.708;2023-04-19T12:53:48;10.10;;;5.22;;
75152;SDS011;63734;45.218;36.708;2023-04-19T12:56:15;12.20;;;4.90;;
75152;SDS011;63734;45.218;36.708;2023-04-19T12:58:42;16.90;;;5.82;;
75152;SDS011;63734;45.218;36.708;2023-04-19T13:01:09;12.55;;;5.07;;
75152;SDS011;63734;45.218;36.708;2023-04-19T13:03:35;12.93;;;5.20;;
75152;SDS011;63734;45.218;36.708;2023-04-19T13:06:02;8.20;;;5.05;;
75152;SDS011;63734;45.218;36.708;2023-04-19T13:08:28;14.50;;;5.10;;
75152;SDS011;63734;45.218;36.708;2023-04-19T13:10:54;13.48;;;5.38;;
75152;SDS011;63734;45.218;36.708;2023-04-19T13:13:21;9.40;;;4.63;;
75152;SDS011;63734;45.218;36.708;2023-04-19T13:15:47;12.68;;;4.80;;
75152;SDS011;63734;45.218;36.708;2023-04-19T13:18:13;14.68;;;5.05;;
75152;SDS011;63734;45.218;36.708;2023-04-19T13:20:39;10.88;;;5.43;;
75152;SDS011;63734;45.218;36.708;2023-04-19T13:23:05;11.98;;;5.90;;
75152;SDS011;63734;45.218;36.708;2023-04-19T13:25:31;11.23;;;5.63;;
75152;SDS011;63734;45.218;36.708;2023-04-19T13:27:57;11.02;;;5.72;;
75152;SDS011;63734;45.218;36.708;2023-04-19T13:30:23;10.50;;;5.78;;
75152;SDS011;63734;45.218;36.708;2023-04-19T13:32:50;11.32;;;5.30;;
75152;SDS011;63734;45.218;36.708;2023-04-19T13:35:19;12.77;;;4.43;;
75152;SDS011;63734;45.218;36.708;2023-04-19T13:37:46;10.70;;;5.13;;
75152;SDS011;63734;45.218;36.708;2023-04-19T13:40:12;11.10;;;4.80;;
75152;SDS011;63734;45.218;36.708;2023-04-19T13:42:40;10.13;;;4.72;;
75152;SDS011;63734;45.218;36.708;2023-04-19T13:45:06;11.18;;;5.18;;
75152;SDS011;63734;45.218;36.708;2023-04-19T13:47:33;11.25;;;5.43;;
75152;SDS011;63734;45.218;36.708;2023-04-19T13:49:59;8.70;;;5.10;;
75152;SDS011;63734;45.218;36.708;2023-04-19T13:52:28;9.90;;;5.25;;
75152;SDS011;63734;45.218;36.708;2023-04-19T13:54:54;9.43;;;5.38;;
75152;SDS011;63734;45.218;36.708;2023-04-19T13:57:20;13.55;;;5.80;;
75152;SDS011;63734;45.218;36.708;2023-04-19T13:59:46;11.40;;;5.45;;
75152;SDS011;63734;45.218;36.708;2023-04-19T14:02:14;10.95;;;6.63;;
75152;SDS011;63734;45.218;36.708;2023-04-19T14:04:40;10.30;;;4.47;;
75152;SDS011;63734;45.218;36.708;2023-04-19T14:07:06;14.80;;;6.32;;
75152;SDS011;63734;45.218;36.708;2023-04-19T14:21:43;12.32;;;7.03;;
75152;SDS011;63734;45.218;36.708;2023-04-19T14:24:09;12.95;;;5.85;;
75152;SDS011;63734;45.218;36.708;2023-04-19T14:26:35;11.95;;;5.78;;
75152;SDS011;63734;45.218;36.708;2023-04-19T14:29:01;11.93;;;6.45;;
75152;SDS011;63734;45.218;36.708;2023-04-19T14:31:27;11.82;;;6.32;;
75152;SDS011;63734;45.218;36.708;2023-04-19T14:33:54;14.95;;;7.35;;
75152;SDS011;63734;45.218;36.708;2023-04-19T14:36:20;11.65;;;6.22;;
75152;SDS011;63734;45.218;36.708;2023-04-19T14:38:46;18.95;;;8.90;;
75152;SDS011;63734;45.218;36.708;2023-04-19T14:41:12;12.10;;;7.38;;
75152;SDS011;63734;45.218;36.708;2023-04-19T14:43:38;11.38;;;6.07;;
75152;SDS011;63734;45.218;36.708;2023-04-19T14:46:04;19.45;;;8.40;;
75152;SDS011;63734;45.218;36.708;2023-04-19T14:48:31;19.05;;;8.65;;
75152;SDS011;63734;45.218;36.708;2023-04-19T14:50:57;15.63;;;6.78;;
75152;SDS011;63734;45.218;36.708;2023-04-19T14:53:23;9.40;;;5.95;;
75152;SDS011;63734;45.218;36.708;2023-04-19T14:55:49;15.13;;;7.03;;
75152;SDS011;63734;45.218;36.708;2023-04-19T14:58:15;16.00;;;7.55;;
75152;SDS011;63734;45.218;36.708;2023-04-19T15:00:41;11.10;;;5.57;;
75152;SDS011;63734;45.218;36.708;2023-04-19T15:03:07;18.23;;;7.25;;